createdAt,value
2018-10-16T00:01:00.131Z,20.87
2018-10-16T00:03:28.515Z,17.43
2018-10-16T00:05:57.125Z,20.37
2018-10-16T00:08:25.632Z,16.77
2018-10-16T00:10:54.019Z,17.50
2018-10-16T00:13:22.465Z,18.17
2018-10-16T00:15:50.886Z,17.70
2018-10-16T00:18:19.283Z,19.13
2018-10-16T00:20:47.802Z,20.63
2018-10-16T00:23:16.210Z,18.03
2018-10-16T00:25:44.815Z,18.37
2018-10-16T00:28:13.302Z,18.27
2018-10-16T00:30:41.711Z,21.67
2018-10-16T00:33:10.350Z,17.17
2018-10-16T00:35:38.957Z,20.47
2018-10-16T00:38:07.746Z,17.93
2018-10-16T00:40:36.252Z,20.07
2018-10-16T00:43:04.972Z,20.87
2018-10-16T00:45:33.460Z,21.07
2018-10-16T00:48:01.880Z,21.73
2018-10-16T00:50:30.268Z,19.10
2018-10-16T00:52:58.995Z,18.93
2018-10-16T00:55:27.475Z,20.43
2018-10-16T00:57:56.111Z,19.37
2018-10-16T01:00:24.860Z,18.77
2018-10-16T01:02:53.307Z,18.87
2018-10-16T01:05:21.691Z,20.80
2018-10-16T01:07:50.101Z,16.37
2018-10-16T01:10:18.713Z,16.50
2018-10-16T01:12:47.185Z,17.40
2018-10-16T01:15:15.579Z,19.83
2018-10-16T01:17:44.575Z,28.00
2018-10-16T01:20:13.789Z,18.20
2018-10-16T01:22:42.833Z,21.40
2018-10-16T01:25:12.039Z,19.13
2018-10-16T01:27:40.623Z,18.87
2018-10-16T01:30:09.252Z,18.23
2018-10-16T01:32:37.893Z,22.13
2018-10-16T01:35:06.870Z,18.60
2018-10-16T01:37:35.267Z,18.67
2018-10-16T01:40:04.439Z,25.67
2018-10-16T01:42:33.048Z,19.20
2018-10-16T01:45:01.532Z,20.10
2018-10-16T01:47:29.915Z,19.83
2018-10-16T01:49:58.299Z,21.03
2018-10-16T01:52:26.944Z,21.50
2018-10-16T01:54:55.446Z,20.53
2018-10-16T01:57:23.868Z,20.20
2018-10-16T01:59:52.703Z,24.27
2018-10-16T02:02:21.174Z,23.20
2018-10-16T02:04:49.571Z,18.73
2018-10-16T02:07:17.979Z,21.70
2018-10-16T02:09:46.359Z,20.83
2018-10-16T02:12:14.980Z,24.63
2018-10-16T02:14:43.522Z,20.67
2018-10-16T02:17:12.501Z,20.70
2018-10-16T02:19:41.116Z,23.30
2018-10-16T02:22:09.621Z,22.97
2018-10-16T02:24:38.233Z,24.37
2018-10-16T02:27:06.926Z,18.70
2018-10-16T02:29:35.419Z,19.93
2018-10-16T02:32:03.900Z,21.57
2018-10-16T02:34:32.315Z,21.83
2018-10-16T02:37:00.960Z,24.37
2018-10-16T02:39:29.437Z,18.37
2018-10-16T02:41:57.817Z,15.57
2018-10-16T02:44:27.147Z,17.83
2018-10-16T02:46:55.747Z,20.97
2018-10-16T02:49:24.231Z,18.03
2018-10-16T02:51:52.643Z,19.13
2018-10-16T02:54:21.066Z,22.03
2018-10-16T02:56:49.457Z,19.43
2018-10-16T02:59:17.894Z,18.87
2018-10-16T03:01:46.259Z,20.17
2018-10-16T03:04:14.855Z,17.97
2018-10-16T03:06:43.351Z,18.60
2018-10-16T03:09:11.748Z,21.50
2018-10-16T03:11:40.199Z,19.67
2018-10-16T03:14:08.716Z,18.07
2018-10-16T03:16:37.315Z,19.80
2018-10-16T03:19:05.912Z,22.33
2018-10-16T03:21:34.519Z,21.60
2018-10-16T03:24:03.247Z,18.77
2018-10-16T03:26:31.719Z,20.43
2018-10-16T03:29:00.123Z,20.77
2018-10-16T03:31:28.731Z,22.40
2018-10-16T03:33:57.216Z,19.03
2018-10-16T03:36:25.614Z,21.30
2018-10-16T03:38:54.023Z,18.30
2018-10-16T03:41:22.775Z,19.03
2018-10-16T03:43:52.890Z,19.57
2018-10-16T03:46:21.284Z,20.73
2018-10-16T03:48:49.672Z,20.67
2018-10-16T03:51:18.100Z,17.40
2018-10-16T03:53:46.488Z,17.70
2018-10-16T03:56:15.686Z,18.67
2018-10-16T03:58:44.527Z,26.53
2018-10-16T04:01:13.228Z,18.47
2018-10-16T04:03:41.726Z,20.10
2018-10-16T04:06:10.135Z,21.60
2018-10-16T04:08:38.523Z,17.97
2018-10-16T04:12:10.534Z,21.77
2018-10-16T04:14:39.015Z,19.73
2018-10-16T04:17:07.415Z,18.57
2018-10-16T04:19:35.816Z,18.93
2018-10-16T04:22:04.559Z,19.93
2018-10-16T04:24:33.276Z,19.03
2018-10-16T04:27:01.763Z,18.07
2018-10-16T04:29:30.143Z,18.53
2018-10-16T04:31:58.566Z,21.57
2018-10-16T04:34:26.974Z,23.53
2018-10-16T04:36:55.362Z,25.02
2018-10-16T04:39:23.764Z,20.77
2018-10-16T04:41:52.192Z,23.57
2018-10-16T04:44:20.792Z,21.77
2018-10-16T04:46:49.270Z,18.87
2018-10-16T04:49:18.492Z,21.67
2018-10-16T04:51:47.092Z,21.93
2018-10-16T04:54:15.838Z,21.13
2018-10-16T04:56:44.460Z,20.17
2018-10-16T04:59:13.163Z,20.97
2018-10-16T05:01:41.647Z,21.23
2018-10-16T05:04:10.088Z,26.70
2018-10-16T05:06:39.275Z,23.30
2018-10-16T05:09:08.273Z,18.70
2018-10-16T05:11:42.340Z,20.47
2018-10-16T05:14:10.816Z,21.73
2018-10-16T05:16:39.453Z,17.50
2018-10-16T05:19:08.030Z,22.50
2018-10-16T05:21:36.819Z,20.73
2018-10-16T05:24:05.436Z,19.07
2018-10-16T05:26:33.845Z,22.57
2018-10-16T05:29:02.239Z,21.27
2018-10-16T05:31:30.756Z,20.43
2018-10-16T05:33:59.304Z,24.03
2018-10-16T05:36:27.783Z,18.07
2018-10-16T05:38:56.172Z,19.07
2018-10-16T05:41:24.601Z,18.33
2018-10-16T05:43:53.201Z,20.43
2018-10-16T05:46:21.688Z,20.37
2018-10-16T05:48:50.189Z,18.63
2018-10-16T05:51:18.551Z,19.70
2018-10-16T05:53:47.201Z,24.20
2018-10-16T05:56:15.748Z,21.47
2018-10-16T05:58:44.142Z,26.33
2018-10-16T06:01:12.568Z,22.00
2018-10-16T06:03:41.192Z,23.43
2018-10-16T06:06:09.597Z,20.23
2018-10-16T06:08:38.208Z,19.70
2018-10-16T06:11:17.000Z,20.13
2018-10-16T06:13:45.488Z,18.00
2018-10-16T06:16:13.910Z,18.90
2018-10-16T06:18:42.569Z,23.73
2018-10-16T06:21:11.289Z,22.47
2018-10-16T06:23:39.761Z,20.27
2018-10-16T06:26:08.195Z,32.17
2018-10-16T06:28:36.612Z,21.53
2018-10-16T06:31:05.108Z,18.70
2018-10-16T06:33:33.560Z,24.30
2018-10-16T06:36:01.942Z,23.43
2018-10-16T06:38:30.420Z,20.60
2018-10-16T06:40:58.949Z,20.83
2018-10-16T06:43:27.516Z,20.27
2018-10-16T06:45:56.224Z,23.43
2018-10-16T06:48:25.252Z,21.00
2018-10-16T06:50:53.435Z,20.23
2018-10-16T06:53:22.805Z,17.43
2018-10-16T06:55:51.615Z,21.70
2018-10-16T06:58:20.023Z,20.87
2018-10-16T07:00:48.436Z,19.07
2018-10-16T07:03:16.842Z,19.07
2018-10-16T07:05:45.234Z,24.23
2018-10-16T07:08:13.650Z,23.33
2018-10-16T07:10:42.074Z,20.50
2018-10-16T07:13:10.483Z,24.47
2018-10-16T07:15:38.922Z,23.80
2018-10-16T07:18:07.334Z,22.27
2018-10-16T07:20:35.733Z,21.37
2018-10-16T07:23:04.115Z,19.30
2018-10-16T07:25:32.759Z,20.80
2018-10-16T07:28:01.469Z,27.77
2018-10-16T07:30:30.163Z,24.23
2018-10-16T07:32:58.923Z,22.57
2018-10-16T07:35:27.407Z,19.33
2018-10-16T07:37:55.892Z,19.00
2018-10-16T07:40:24.208Z,21.47
2018-10-16T07:42:57.684Z,24.57
2018-10-16T07:45:26.114Z,22.70
2018-10-16T07:47:54.503Z,22.30
2018-10-16T07:50:23.150Z,24.67
2018-10-16T07:52:51.695Z,22.87
2018-10-16T07:55:20.379Z,22.23
2018-10-16T07:57:49.138Z,26.90
2018-10-16T08:00:17.599Z,24.77
2018-10-16T08:02:46.062Z,21.63
2018-10-16T08:05:14.527Z,22.80
2018-10-16T08:07:43.144Z,24.63
2018-10-16T08:10:13.606Z,19.87
2018-10-16T08:12:42.896Z,23.13
2018-10-16T08:15:11.676Z,19.13
2018-10-16T08:17:40.779Z,21.90
2018-10-16T08:20:09.239Z,19.73
2018-10-16T08:22:38.001Z,18.53
2018-10-16T08:25:06.431Z,20.57
2018-10-16T08:27:34.845Z,18.07
2018-10-16T08:30:03.584Z,22.87
2018-10-16T08:32:32.277Z,21.57
2018-10-16T08:35:00.795Z,17.90
2018-10-16T08:37:40.483Z,20.80
2018-10-16T08:40:09.014Z,21.10
2018-10-16T08:42:50.622Z,22.03
2018-10-16T08:45:24.567Z,22.57
2018-10-16T08:47:59.223Z,30.70
2018-10-16T08:50:34.472Z,19.17
2018-10-16T08:53:03.222Z,20.70
2018-10-16T08:55:31.613Z,19.47
2018-10-16T08:58:00.350Z,16.17
2018-10-16T09:00:29.081Z,18.77
2018-10-16T09:02:57.547Z,16.90
2018-10-16T09:05:26.200Z,15.13
2018-10-16T09:07:55.254Z,14.60
2018-10-16T09:10:23.996Z,15.53
2018-10-16T09:12:52.821Z,13.78
2018-10-16T09:15:22.103Z,12.85
2018-10-16T09:17:50.817Z,15.68
2018-10-16T09:20:19.644Z,16.40
2018-10-16T09:22:48.388Z,18.00
2018-10-16T09:25:17.300Z,16.10
2018-10-16T09:27:46.163Z,16.07
2018-10-16T09:30:15.161Z,15.90
2018-10-16T09:32:43.763Z,15.68
2018-10-16T09:35:13.074Z,15.80
2018-10-16T09:37:41.763Z,15.60
2018-10-16T09:40:11.397Z,17.77
2018-10-16T09:42:39.921Z,15.20
2018-10-16T09:45:09.477Z,16.30
2018-10-16T09:47:37.958Z,19.92
2018-10-16T09:50:06.652Z,14.10
2018-10-16T09:52:35.429Z,12.18
2018-10-16T09:55:04.327Z,12.93
2018-10-16T09:57:33.028Z,11.45
2018-10-16T10:00:01.883Z,12.35
2018-10-16T10:02:30.578Z,10.58
2018-10-16T10:04:59.375Z,11.95
2018-10-16T10:07:28.323Z,12.25
2018-10-16T10:09:57.083Z,14.60
2018-10-16T10:12:25.655Z,11.65
2018-10-16T10:14:54.404Z,13.45
2018-10-16T10:17:23.200Z,10.90
2018-10-16T10:19:51.715Z,12.03
2018-10-16T10:22:20.133Z,15.60
2018-10-16T10:24:48.606Z,13.25
2018-10-16T10:27:17.066Z,12.60
2018-10-16T10:29:45.885Z,16.23
2018-10-16T10:32:14.586Z,15.85
2018-10-16T10:34:43.457Z,12.70
2018-10-16T10:37:12.027Z,11.57
2018-10-16T10:39:40.561Z,14.65
2018-10-16T10:42:14.024Z,12.95
2018-10-16T10:44:42.463Z,14.90
2018-10-16T10:47:11.079Z,13.10
2018-10-16T10:49:39.649Z,12.35
2018-10-16T10:52:08.135Z,16.42
2018-10-16T10:54:36.553Z,14.93
2018-10-16T10:57:05.335Z,15.70
2018-10-16T10:59:33.704Z,13.50
2018-10-16T11:02:02.572Z,16.37
2018-10-16T11:04:31.162Z,14.93
2018-10-16T11:06:59.787Z,16.30
2018-10-16T11:09:29.287Z,15.13
2018-10-16T11:11:57.996Z,17.60
2018-10-16T11:14:27.284Z,15.67
2018-10-16T11:16:55.782Z,17.53
2018-10-16T11:19:24.623Z,17.40
2018-10-16T11:21:53.709Z,15.87
2018-10-16T11:24:22.271Z,15.20
2018-10-16T11:26:50.827Z,15.97
2018-10-16T11:29:19.334Z,16.37
2018-10-16T11:31:47.831Z,14.37
2018-10-16T11:34:16.611Z,15.80
2018-10-16T11:36:45.456Z,18.00
2018-10-16T11:39:14.161Z,18.87
2018-10-16T11:41:42.722Z,17.33
2018-10-16T11:44:12.559Z,16.97
2018-10-16T11:46:42.157Z,14.57
2018-10-16T11:49:10.948Z,14.63
2018-10-16T11:51:39.700Z,13.83
2018-10-16T11:54:08.737Z,13.73
2018-10-16T11:56:37.512Z,13.23
2018-10-16T11:59:05.907Z,18.43
2018-10-16T12:01:34.535Z,15.53
2018-10-16T12:04:03.290Z,15.93
2018-10-16T12:06:31.787Z,15.67
2018-10-16T12:09:00.192Z,14.63
2018-10-16T12:11:28.640Z,14.07
2018-10-16T12:13:57.320Z,15.20
2018-10-16T12:16:29.152Z,15.63
2018-10-16T12:19:03.202Z,12.27
2018-10-16T12:21:31.899Z,14.20
2018-10-16T12:24:00.487Z,16.10
2018-10-16T12:26:29.069Z,15.73
2018-10-16T12:28:57.835Z,13.63
2018-10-16T12:31:26.560Z,13.33
2018-10-16T12:33:55.325Z,14.13
2018-10-16T12:36:23.808Z,15.80
2018-10-16T12:38:52.426Z,16.90
2018-10-16T12:41:21.223Z,17.97
2018-10-16T12:43:49.880Z,15.13
2018-10-16T12:46:18.174Z,15.63
2018-10-16T12:48:46.586Z,13.17
2018-10-16T12:51:15.137Z,16.40
2018-10-16T12:53:43.455Z,16.63
2018-10-16T12:56:11.936Z,18.07
2018-10-16T12:58:40.576Z,16.03
2018-10-16T13:01:09.054Z,16.63
2018-10-16T13:03:37.756Z,14.80
2018-10-16T13:06:06.204Z,15.60
2018-10-16T13:08:34.674Z,15.70
2018-10-16T13:11:03.304Z,15.47
2018-10-16T13:13:31.674Z,15.13
2018-10-16T13:16:00.150Z,16.47
2018-10-16T13:18:28.515Z,18.00
2018-10-16T13:20:56.932Z,14.23
2018-10-16T13:23:25.604Z,17.07
2018-10-16T13:25:54.074Z,14.67
2018-10-16T13:28:22.680Z,17.67
2018-10-16T13:30:51.148Z,14.73
2018-10-16T13:33:19.567Z,16.67
2018-10-16T13:35:47.953Z,17.07
2018-10-16T13:38:16.583Z,18.70
2018-10-16T13:40:45.098Z,18.80
2018-10-16T13:43:13.536Z,17.77
2018-10-16T13:45:41.936Z,17.47
2018-10-16T13:48:10.655Z,18.87
2018-10-16T13:50:39.174Z,17.07
2018-10-16T13:53:07.824Z,18.03
2018-10-16T13:55:36.552Z,18.23
2018-10-16T13:58:05.230Z,19.17
2018-10-16T14:00:33.591Z,17.40
2018-10-16T14:03:02.059Z,18.83
2018-10-16T14:05:30.691Z,19.87
2018-10-16T14:07:59.431Z,18.03
2018-10-16T14:10:27.912Z,19.07
2018-10-16T14:12:56.555Z,17.03
2018-10-16T14:15:25.054Z,18.40
2018-10-16T14:17:53.540Z,17.50
2018-10-16T14:20:21.975Z,21.63
2018-10-16T14:22:50.624Z,19.83
2018-10-16T14:25:19.313Z,20.50
2018-10-16T14:27:47.787Z,20.13
2018-10-16T14:30:16.673Z,16.03
2018-10-16T14:32:45.363Z,17.27
2018-10-16T14:35:14.199Z,19.17
2018-10-16T14:37:42.812Z,20.67
2018-10-16T14:40:13.213Z,18.77
2018-10-16T14:42:41.849Z,20.50
2018-10-16T14:45:11.156Z,20.70
2018-10-16T14:47:39.800Z,20.03
2018-10-16T14:50:09.307Z,24.17
2018-10-16T14:52:37.778Z,19.47
2018-10-16T14:55:06.239Z,23.23
2018-10-16T14:57:35.212Z,24.27
2018-10-16T15:00:03.842Z,22.17
2018-10-16T15:02:32.336Z,23.00
2018-10-16T15:05:01.018Z,20.97
2018-10-16T15:07:29.724Z,24.40
2018-10-16T15:09:58.312Z,23.33
2018-10-16T15:12:32.640Z,24.73
2018-10-16T15:15:02.191Z,28.43
2018-10-16T15:17:31.249Z,29.70
2018-10-16T15:20:00.188Z,25.87
2018-10-16T15:22:28.935Z,26.40
2018-10-16T15:24:57.344Z,32.60
2018-10-16T15:27:25.736Z,27.90
2018-10-16T15:29:54.148Z,23.77
2018-10-16T15:32:22.559Z,26.27
2018-10-16T15:34:50.999Z,28.60
2018-10-16T15:37:19.617Z,30.57
2018-10-16T15:39:48.119Z,27.50
2018-10-16T15:42:16.762Z,33.83
2018-10-16T15:44:45.463Z,23.33
2018-10-16T15:47:13.928Z,25.07
2018-10-16T15:49:42.350Z,24.50
2018-10-16T15:52:11.165Z,27.17
2018-10-16T15:54:39.566Z,26.40
2018-10-16T15:57:08.010Z,24.57
2018-10-16T15:59:36.683Z,24.70
2018-10-16T16:02:05.328Z,28.60
2018-10-16T16:04:33.640Z,26.73
2018-10-16T16:07:02.063Z,26.40
2018-10-16T16:09:30.668Z,26.13
2018-10-16T16:11:59.428Z,26.27
2018-10-16T16:14:27.996Z,26.20
2018-10-16T16:16:56.757Z,28.37
2018-10-16T16:19:25.502Z,27.27
2018-10-16T16:21:54.180Z,25.97
2018-10-16T16:24:22.539Z,27.73
2018-10-16T16:26:50.941Z,27.07
2018-10-16T16:29:19.422Z,29.23
2018-10-16T16:31:47.811Z,29.30
2018-10-16T16:34:16.192Z,27.67
2018-10-16T16:36:44.893Z,26.93
2018-10-16T16:39:13.886Z,29.23
2018-10-16T16:41:42.747Z,31.23
2018-10-16T16:44:11.244Z,29.40
2018-10-16T16:46:40.122Z,25.87
2018-10-16T16:49:08.516Z,24.20
2018-10-16T16:51:36.921Z,22.20
2018-10-16T16:54:05.531Z,25.80
2018-10-16T16:56:33.938Z,23.33
2018-10-16T16:59:02.374Z,20.97
2018-10-16T17:01:30.835Z,22.33
2018-10-16T17:03:59.486Z,23.57
2018-10-16T17:06:28.109Z,26.83
2018-10-16T17:08:56.560Z,30.40
2018-10-16T17:11:25.064Z,28.77
2018-10-16T17:13:53.549Z,28.63
2018-10-16T17:16:21.949Z,30.23
2018-10-16T17:18:50.466Z,25.77
2018-10-16T17:21:18.865Z,30.03
2018-10-16T17:23:47.278Z,21.77
2018-10-16T17:26:15.946Z,25.97
2018-10-16T17:28:44.111Z,25.17
2018-10-16T17:31:12.523Z,28.77
2018-10-16T17:33:40.959Z,29.67
2018-10-16T17:36:09.601Z,27.53
2018-10-16T17:38:38.115Z,29.30
2018-10-16T17:41:06.578Z,26.53
2018-10-16T17:43:34.977Z,21.77
2018-10-16T17:46:03.496Z,23.33
2018-10-16T17:48:31.931Z,25.80
2018-10-16T17:51:03.337Z,28.63
2018-10-16T17:53:32.977Z,26.87
2018-10-16T17:56:04.352Z,23.50
2018-10-16T17:58:36.701Z,26.27
2018-10-16T18:01:05.523Z,21.30
2018-10-16T18:03:34.035Z,23.03
2018-10-16T18:06:02.664Z,24.73
2018-10-16T18:08:31.592Z,21.77
2018-10-16T18:11:04.045Z,26.20
2018-10-16T18:13:33.548Z,27.37
2018-10-16T18:16:04.752Z,29.20
2018-10-16T18:18:34.597Z,28.70
2018-10-16T18:21:04.250Z,29.70
2018-10-16T18:23:33.412Z,30.40
2018-10-16T18:26:02.130Z,27.80
2018-10-16T18:28:32.760Z,27.43
2018-10-16T18:31:01.750Z,30.87
2018-10-16T18:33:30.517Z,29.27
2018-10-16T18:35:59.983Z,31.13
2018-10-16T18:38:29.751Z,32.37
2018-10-16T18:40:59.527Z,33.10
2018-10-16T18:43:29.306Z,28.87
2018-10-16T18:45:58.358Z,32.20
2018-10-16T18:48:31.169Z,35.10
2018-10-16T18:50:59.564Z,34.63
2018-10-16T18:53:28.498Z,30.93
2018-10-16T18:55:56.944Z,30.87
2018-10-16T18:58:25.593Z,33.00
2018-10-16T19:00:54.075Z,32.40
2018-10-16T19:03:22.736Z,29.70
2018-10-16T19:05:51.464Z,34.37
2018-10-16T19:08:19.975Z,32.10
2018-10-16T19:10:48.395Z,32.00
2018-10-16T19:13:16.835Z,32.00
2018-10-16T19:15:45.467Z,32.90
2018-10-16T19:18:13.975Z,32.83
2018-10-16T19:20:42.401Z,34.17
2018-10-16T19:23:10.919Z,31.77
2018-10-16T19:25:39.323Z,36.70
2018-10-16T19:28:07.903Z,31.90
2018-10-16T19:30:36.300Z,31.40
2018-10-16T19:33:04.824Z,38.83
2018-10-16T19:35:33.160Z,36.13
2018-10-16T19:38:01.544Z,34.17
2018-10-16T19:40:29.942Z,27.97
2018-10-16T19:42:58.336Z,26.00
2018-10-16T19:45:26.778Z,27.80
2018-10-16T19:47:55.134Z,29.87
2018-10-16T19:50:24.170Z,33.17
2018-10-16T19:52:52.550Z,30.00
2018-10-16T19:55:20.960Z,30.93
2018-10-16T19:57:49.564Z,34.90
2018-10-16T20:00:18.117Z,29.50
2018-10-16T20:02:46.691Z,35.47
2018-10-16T20:05:15.400Z,34.07
2018-10-16T20:07:43.878Z,37.00
2018-10-16T20:10:12.307Z,36.37
2018-10-16T20:12:41.404Z,41.23
2018-10-16T20:15:11.238Z,34.20
2018-10-16T20:17:39.652Z,32.37
2018-10-16T20:20:08.519Z,33.30
2018-10-16T20:22:36.918Z,37.30
2018-10-16T20:25:06.275Z,39.50
2018-10-16T20:27:35.331Z,40.20
2018-10-16T20:30:05.107Z,39.03
2018-10-16T20:32:33.949Z,42.03
2018-10-16T20:35:03.318Z,37.00
2018-10-16T20:37:32.519Z,36.70
2018-10-16T20:40:01.971Z,35.40
2018-10-16T20:42:30.424Z,49.63
2018-10-16T20:44:59.431Z,38.30
2018-10-16T20:47:28.155Z,33.97
2018-10-16T20:49:56.567Z,28.27
2018-10-16T20:52:25.087Z,30.90
2018-10-16T20:54:54.194Z,30.97
2018-10-16T20:57:23.089Z,32.17
2018-10-16T21:00:02.607Z,30.30
2018-10-16T21:02:36.855Z,34.03
2018-10-16T21:05:06.548Z,35.83
2018-10-16T21:07:35.131Z,37.40
2018-10-16T21:10:04.293Z,42.50
2018-10-16T21:12:33.937Z,39.57
2018-10-16T21:15:02.644Z,35.63
2018-10-16T21:17:31.777Z,36.60
2018-10-16T21:20:01.509Z,41.87
2018-10-16T21:22:30.280Z,38.10
2018-10-16T21:24:59.581Z,44.70
2018-10-16T21:27:28.364Z,38.70
2018-10-16T21:29:57.364Z,37.80
2018-10-16T21:32:26.139Z,36.27
2018-10-16T21:34:54.915Z,40.20
2018-10-16T21:37:23.635Z,40.60
2018-10-16T21:39:52.772Z,36.90
2018-10-16T21:42:21.534Z,37.80
2018-10-16T21:44:50.217Z,34.60
2018-10-16T21:47:18.878Z,36.47
2018-10-16T21:49:47.567Z,33.63
2018-10-16T21:52:16.353Z,46.37
2018-10-16T21:54:44.985Z,43.70
2018-10-16T21:57:13.801Z,38.70
2018-10-16T21:59:42.240Z,40.43
2018-10-16T22:02:16.282Z,34.73
2018-10-16T22:04:44.703Z,36.97
2018-10-16T22:07:13.228Z,36.00
2018-10-16T22:09:41.508Z,37.23
2018-10-16T22:12:10.156Z,41.70
2018-10-16T22:14:38.511Z,37.17
2018-10-16T22:17:06.899Z,34.57
2018-10-16T22:19:35.368Z,33.67
2018-10-16T22:22:03.975Z,31.50
2018-10-16T22:24:32.315Z,31.50
2018-10-16T22:27:00.626Z,29.77
2018-10-16T22:29:29.022Z,33.50
2018-10-16T22:31:57.364Z,32.77
2018-10-16T22:34:25.718Z,28.90
2018-10-16T22:36:54.037Z,37.83
2018-10-16T22:39:22.362Z,36.53
2018-10-16T22:41:51.581Z,31.87
2018-10-16T22:44:20.123Z,34.87
2018-10-16T22:46:48.770Z,40.73
2018-10-16T22:49:17.533Z,33.50
2018-10-16T22:51:45.841Z,34.60
2018-10-16T22:54:14.234Z,33.60
2018-10-16T22:56:42.575Z,34.67
2018-10-16T22:59:10.958Z,37.63
2018-10-16T23:01:39.225Z,39.97
2018-10-16T23:04:07.546Z,37.53
2018-10-16T23:06:35.866Z,35.07
2018-10-16T23:09:05.939Z,40.10
2018-10-16T23:11:34.300Z,36.30
2018-10-16T23:14:02.602Z,42.40
2018-10-16T23:16:31.350Z,41.27
2018-10-16T23:19:00.040Z,38.27
2018-10-16T23:21:28.329Z,46.70
2018-10-16T23:23:56.838Z,41.77
2018-10-16T23:26:25.431Z,47.27
2018-10-16T23:28:53.893Z,52.40
2018-10-16T23:31:27.614Z,52.33
2018-10-16T23:33:55.999Z,44.03
2018-10-16T23:36:24.400Z,44.23
2018-10-16T23:38:52.790Z,43.97
2018-10-16T23:41:21.182Z,46.90
2018-10-16T23:43:49.807Z,37.53
2018-10-16T23:46:18.312Z,41.27
2018-10-16T23:48:47.322Z,43.30
2018-10-16T23:51:21.039Z,39.10
2018-10-16T23:53:49.512Z,37.73
2018-10-16T23:56:17.890Z,40.33
2018-10-16T23:58:46.328Z,42.27
